Time;durP1;ratioP1;P1;durP2;ratioP2;P2;SDS_P1;SDS_P2;PMS_P1;PMS_P2;Temp;Humidity;BMP_temperature;BMP_pressure;BME280_temperature;BME280_humidity;BME280_pressure;Samples;Min_cycle;Max_cycle;Signal;HPM_P1;HPM_P2
2023/07/17 00:01:43;;;;;;;6.33;4.10;;;20.90;94.20;;;;;;4928164;28;20265;-69
2023/07/17 00:04:09;;;;;;;5.23;4.10;;;20.90;94.20;;;;;;4930169;28;20464;-70
2023/07/17 00:06:35;;;;;;;5.87;5.27;;;20.90;94.30;;;;;;4913443;28;20808;-70
2023/07/17 00:09:00;;;;;;;4.57;4.03;;;20.90;94.30;;;;;;4928841;28;20851;-70
2023/07/17 00:11:26;;;;;;;6.60;4.90;;;20.90;94.30;;;;;;4914451;28;20471;-69
2023/07/17 00:13:52;;;;;;;12.30;5.27;;;20.90;94.30;;;;;;4929216;28;20223;-71
2023/07/17 00:16:19;;;;;;;4.70;4.00;;;20.80;94.40;;;;;;4930165;28;20216;-69
2023/07/17 00:18:45;;;;;;;5.63;4.10;;;20.70;94.40;;;;;;4913741;28;20676;-70
2023/07/17 00:21:10;;;;;;;7.60;4.73;;;20.70;94.40;;;;;;4913277;28;20474;-70
2023/07/17 00:23:36;;;;;;;6.30;4.73;;;20.60;94.60;;;;;;4928192;28;20270;-69
2023/07/17 00:26:02;;;;;;;4.37;3.87;;;20.60;94.60;;;;;;4913654;28;20709;-70
2023/07/17 00:28:27;;;;;;;7.20;4.60;;;20.60;94.70;;;;;;4927652;28;20329;-69
2023/07/17 00:30:53;;;;;;;6.37;4.70;;;20.50;94.80;;;;;;4914162;28;20231;-70
2023/07/17 00:33:19;;;;;;;8.00;5.10;;;20.40;94.90;;;;;;4912974;28;20223;-70
2023/07/17 00:35:44;;;;;;;5.13;4.40;;;20.30;95.10;;;;;;4912736;28;20228;-68
2023/07/17 00:38:10;;;;;;;5.73;4.40;;;20.10;95.40;;;;;;4913145;28;21751;-70
2023/07/17 00:40:39;;;;;;;5.00;4.10;;;20.20;95.30;;;;;;4912814;28;20231;-69
2023/07/17 00:43:10;;;;;;;7.03;5.30;;;20.30;95.00;;;;;;4928903;28;20227;-69
2023/07/17 00:45:36;;;;;;;5.10;4.60;;;20.40;95.00;;;;;;4929979;28;20463;-71
2023/07/17 00:48:03;;;;;;;9.07;5.37;;;20.40;94.90;;;;;;4912005;28;20467;-69
2023/07/17 00:50:29;;;;;;;6.53;4.53;;;20.50;94.90;;;;;;4913516;28;20546;-69
2023/07/17 00:52:55;;;;;;;5.70;4.90;;;20.50;94.80;;;;;;4931586;28;20463;-70
2023/07/17 00:55:21;;;;;;;4.57;4.07;;;20.50;94.90;;;;;;4933737;28;20455;-69
2023/07/17 00:57:51;;;;;;;6.30;4.80;;;20.50;94.90;;;;;;4916871;28;20495;-68
2023/07/17 01:00:19;;;;;;;5.53;4.57;;;20.50;95.00;;;;;;4900676;28;20694;-69
2023/07/17 01:02:47;;;;;;;7.07;4.70;;;20.30;95.10;;;;;;4933462;28;20463;-69
2023/07/17 01:05:13;;;;;;;6.93;4.70;;;20.20;95.40;;;;;;4933088;28;20462;-69
2023/07/17 01:07:39;;;;;;;5.60;4.70;;;20.10;95.50;;;;;;4932781;28;20463;-69
2023/07/17 01:10:06;;;;;;;5.20;4.70;;;20.00;95.60;;;;;;4914969;28;20523;-69
2023/07/17 01:12:34;;;;;;;4.30;3.90;;;20.10;95.60;;;;;;4916823;28;20224;-69
2023/07/17 01:15:00;;;;;;;7.43;5.43;;;20.20;95.50;;;;;;4916506;28;20557;-69
2023/07/17 01:17:26;;;;;;;8.70;4.03;;;20.10;95.60;;;;;;4921190;28;20455;-70
2023/07/17 01:19:52;;;;;;;7.77;4.90;;;20.00;95.70;;;;;;4915287;28;20293;-69
2023/07/17 01:22:25;;;;;;;4.97;4.47;;;20.00;95.70;;;;;;4931927;28;20232;-71
2023/07/17 01:24:51;;;;;;;5.40;4.60;;;20.00;95.80;;;;;;4931055;28;20463;-71
2023/07/17 01:27:18;;;;;;;9.27;4.70;;;19.90;95.80;;;;;;4917205;28;20474;-71
2023/07/17 01:29:43;;;;;;;8.23;4.90;;;19.90;95.90;;;;;;4931270;28;20471;-69
2023/07/17 01:32:09;;;;;;;6.80;5.20;;;19.90;95.80;;;;;;4932307;28;20933;-71
2023/07/17 01:34:35;;;;;;;5.57;4.97;;;20.00;95.80;;;;;;4915642;28;20224;-69
2023/07/17 01:37:02;;;;;;;6.03;4.10;;;20.00;95.70;;;;;;4916179;28;20222;-69
2023/07/17 01:39:30;;;;;;;6.20;4.73;;;20.00;95.70;;;;;;4931615;28;21141;-69
2023/07/17 01:41:56;;;;;;;8.17;4.00;;;20.00;95.60;;;;;;4899375;28;20475;-70
2023/07/17 01:44:27;;;;;;;7.30;4.37;;;19.90;95.70;;;;;;4917016;28;20475;-70
2023/07/17 01:46:54;;;;;;;6.33;4.53;;;19.90;95.70;;;;;;4915523;28;21273;-71
2023/07/17 01:49:20;;;;;;;6.60;4.50;;;19.90;95.70;;;;;;4915395;28;20623;-69
2023/07/17 01:51:45;;;;;;;6.00;4.27;;;19.80;95.80;;;;;;4930974;28;21166;-70
2023/07/17 01:54:11;;;;;;;6.50;4.10;;;19.70;95.90;;;;;;4915974;28;20306;-71
2023/07/17 01:56:37;;;;;;;5.30;4.33;;;19.70;96.10;;;;;;4932423;28;20240;-70
2023/07/17 01:59:02;;;;;;;6.10;4.30;;;19.50;96.40;;;;;;4914257;28;20356;-70
2023/07/17 02:01:28;;;;;;;8.23;4.47;;;19.50;96.30;;;;;;4930968;28;20243;-69
2023/07/17 02:03:54;;;;;;;7.03;4.53;;;19.50;96.20;;;;;;4931109;28;20234;-70
2023/07/17 02:06:20;;;;;;;15.20;4.67;;;19.50;96.20;;;;;;4933190;28;20232;-70
2023/07/17 02:08:45;;;;;;;8.50;4.50;;;19.60;96.20;;;;;;4931552;28;20224;-71
2023/07/17 02:11:11;;;;;;;4.97;3.90;;;19.60;96.20;;;;;;4931431;28;20824;-70
2023/07/17 02:13:37;;;;;;;6.57;3.63;;;19.60;96.20;;;;;;4930583;28;20314;-69
2023/07/17 02:16:02;;;;;;;8.17;4.83;;;19.50;96.20;;;;;;4914839;28;20283;-70
2023/07/17 02:18:31;;;;;;;5.30;4.23;;;19.50;96.20;;;;;;4931935;28;20935;-70
2023/07/17 02:20:56;;;;;;;6.73;4.77;;;19.50;96.20;;;;;;4930860;28;20463;-70
2023/07/17 02:23:22;;;;;;;5.23;4.07;;;19.50;96.40;;;;;;4915259;28;20547;-70
2023/07/17 02:25:48;;;;;;;4.60;3.90;;;19.40;96.40;;;;;;4918719;28;20323;-70
2023/07/17 02:28:17;;;;;;;5.67;4.40;;;19.50;96.40;;;;;;4914904;28;20467;-70
2023/07/17 02:30:43;;;;;;;5.00;4.50;;;19.60;96.50;;;;;;4898413;28;20661;-69
2023/07/17 02:33:09;;;;;;;5.40;4.60;;;19.60;96.50;;;;;;4931548;28;20475;-70
2023/07/17 02:35:34;;;;;;;6.60;4.43;;;19.50;96.50;;;;;;4931697;28;20243;-69
2023/07/17 02:38:00;;;;;;;6.27;4.80;;;19.50;96.60;;;;;;4914429;28;20224;-70
2023/07/17 02:40:26;;;;;;;6.03;4.00;;;19.30;96.90;;;;;;4914925;28;20314;-70
2023/07/17 02:42:51;;;;;;;6.63;3.97;;;19.20;97.10;;;;;;4914263;28;20254;-70
2023/07/17 02:45:17;;;;;;;6.90;4.50;;;19.10;97.20;;;;;;4930421;28;20256;-70
2023/07/17 02:47:43;;;;;;;6.00;4.70;;;19.00;97.30;;;;;;4913469;28;20235;-70
2023/07/17 02:50:10;;;;;;;7.10;4.23;;;19.10;97.30;;;;;;4929717;28;20494;-70
2023/07/17 02:52:36;;;;;;;6.57;4.23;;;19.10;97.20;;;;;;4915497;28;20478;-70
2023/07/17 02:55:04;;;;;;;8.73;5.63;;;19.10;97.20;;;;;;4899189;28;20487;-71
2023/07/17 02:57:33;;;;;;;7.37;4.37;;;19.10;97.20;;;;;;4915823;28;20479;-70
2023/07/17 03:00:00;;;;;;;6.70;5.10;;;19.10;97.40;;;;;;4916093;28;20494;-69
2023/07/17 03:02:25;;;;;;;8.03;4.60;;;19.00;97.70;;;;;;4914136;28;20472;-70
2023/07/17 03:04:51;;;;;;;5.43;4.47;;;19.00;97.60;;;;;;4929174;28;20514;-70
2023/07/17 03:07:17;;;;;;;7.70;6.97;;;19.00;97.40;;;;;;4932299;28;20236;-69
2023/07/17 03:09:42;;;;;;;6.40;4.80;;;19.00;97.30;;;;;;4916111;28;20228;-70
2023/07/17 03:12:10;;;;;;;5.57;4.20;;;19.00;97.40;;;;;;4913605;28;20223;-70
2023/07/17 03:14:35;;;;;;;4.90;4.03;;;19.10;97.40;;;;;;4915087;28;20472;-70
2023/07/17 03:17:01;;;;;;;4.30;3.80;;;19.10;97.40;;;;;;4914664;28;20247;-70
2023/07/17 03:19:27;;;;;;;7.37;4.77;;;19.10;97.40;;;;;;4914749;28;20237;-70
2023/07/17 03:21:52;;;;;;;6.50;4.50;;;19.10;97.60;;;;;;4914207;28;20240;-70
2023/07/17 03:24:18;;;;;;;5.80;4.47;;;19.00;97.50;;;;;;4914615;28;20314;-71
2023/07/17 03:26:45;;;;;;;8.43;4.60;;;19.00;97.50;;;;;;4914880;28;20230;-71
2023/07/17 03:29:11;;;;;;;8.17;5.00;;;19.00;97.70;;;;;;4914066;28;20231;-70
2023/07/17 03:31:37;;;;;;;6.67;4.50;;;18.90;97.80;;;;;;4915044;28;20538;-70
2023/07/17 03:34:03;;;;;;;5.00;4.20;;;18.90;97.90;;;;;;4913466;28;21227;-70
2023/07/17 03:36:29;;;;;;;6.60;4.73;;;18.80;98.20;;;;;;4928950;28;20311;-70
2023/07/17 03:38:54;;;;;;;6.10;4.87;;;18.80;97.90;;;;;;4912821;28;20232;-70
2023/07/17 03:41:21;;;;;;;7.20;4.80;;;18.80;97.90;;;;;;4930262;28;20231;-70
2023/07/17 03:43:47;;;;;;;6.30;4.77;;;18.80;98.00;;;;;;4928938;28;20238;-70
2023/07/17 03:46:13;;;;;;;5.57;4.17;;;18.80;98.30;;;;;;4918863;28;20552;-69
2023/07/17 03:48:39;;;;;;;8.00;4.50;;;18.80;98.30;;;;;;4931258;28;20578;-69
2023/07/17 03:51:08;;;;;;;5.17;4.60;;;18.80;98.50;;;;;;4917310;28;21087;-69
2023/07/17 03:53:35;;;;;;;5.47;4.30;;;18.80;98.50;;;;;;4914252;28;20468;-70
2023/07/17 03:56:01;;;;;;;5.50;3.97;;;18.70;98.40;;;;;;4913192;28;20470;-69
2023/07/17 03:58:27;;;;;;;5.70;3.90;;;18.70;99.10;;;;;;4915251;28;20859;-69
2023/07/17 04:00:53;;;;;;;5.77;4.07;;;18.70;98.80;;;;;;4927411;28;20232;-70
2023/07/17 04:03:20;;;;;;;5.27;3.93;;;18.70;99.00;;;;;;4912541;28;20478;-69
2023/07/17 04:05:49;;;;;;;5.70;3.70;;;18.70;99.10;;;;;;4912481;28;20518;-70
2023/07/17 04:08:15;;;;;;;9.40;4.23;;;18.70;99.20;;;;;;4929522;28;20515;-71
2023/07/17 04:10:41;;;;;;;4.60;4.00;;;18.70;99.20;;;;;;4912334;28;21083;-70
2023/07/17 04:13:07;;;;;;;10.67;5.10;;;18.60;99.40;;;;;;4913786;28;20297;-70
2023/07/17 04:15:35;;;;;;;5.40;4.20;;;18.70;99.40;;;;;;4928922;28;20270;-70
2023/07/17 04:18:02;;;;;;;5.10;3.93;;;18.60;99.70;;;;;;4929031;28;20231;-71
2023/07/17 04:20:28;;;;;;;5.37;4.10;;;18.60;99.80;;;;;;4918339;28;20486;-69
2023/07/17 04:22:54;;;;;;;7.80;4.77;;;18.60;99.90;;;;;;4912421;28;20509;-70
2023/07/17 04:25:20;;;;;;;6.17;4.37;;;18.20;99.90;;;;;;4929626;28;20482;-70
2023/07/17 04:27:46;;;;;;;6.00;4.77;;;17.90;99.90;;;;;;4913744;28;20468;-70
2023/07/17 04:30:12;;;;;;;5.13;4.30;;;17.90;99.90;;;;;;4912884;28;20817;-69
2023/07/17 04:32:38;;;;;;;4.97;4.47;;;18.10;99.90;;;;;;4913393;28;20238;-70
2023/07/17 04:35:05;;;;;;;4.87;4.00;;;18.30;99.90;;;;;;4928498;28;20652;-69
2023/07/17 04:37:31;;;;;;;7.80;4.57;;;18.40;99.90;;;;;;4912445;28;21210;-69
2023/07/17 04:39:56;;;;;;;6.03;4.87;;;18.50;99.90;;;;;;4928540;28;20563;-69
2023/07/17 04:42:22;;;;;;;9.30;4.83;;;18.40;99.90;;;;;;4928701;28;20228;-71
2023/07/17 04:44:48;;;;;;;4.93;4.37;;;18.40;99.90;;;;;;4929328;28;20616;-69
2023/07/17 04:47:14;;;;;;;6.67;4.33;;;18.50;99.90;;;;;;4928946;28;20224;-70
2023/07/17 04:49:39;;;;;;;5.73;4.50;;;18.60;99.90;;;;;;4928331;28;20259;-70
2023/07/17 04:52:06;;;;;;;11.40;5.07;;;18.50;99.90;;;;;;4912429;28;20255;-69
2023/07/17 04:54:33;;;;;;;7.33;4.63;;;18.50;99.90;;;;;;4911985;28;21056;-71
2023/07/17 04:56:58;;;;;;;6.60;4.10;;;18.40;99.90;;;;;;4912123;28;20606;-70
2023/07/17 04:59:24;;;;;;;5.07;4.57;;;18.20;99.90;;;;;;4928526;28;20467;-70
2023/07/17 05:01:51;;;;;;;8.57;4.40;;;18.10;99.90;;;;;;4910669;28;20488;-70
2023/07/17 05:04:17;;;;;;;7.20;4.53;;;18.30;99.90;;;;;;4895690;28;21107;-71
2023/07/17 05:06:42;;;;;;;8.37;4.80;;;18.10;99.90;;;;;;4926377;28;20354;-70
2023/07/17 05:09:08;;;;;;;7.23;4.40;;;17.90;99.90;;;;;;4909659;28;20693;-70
2023/07/17 05:11:35;;;;;;;7.33;4.67;;;17.80;99.90;;;;;;4912688;28;20223;-72
2023/07/17 05:14:02;;;;;;;5.70;5.13;;;17.80;99.90;;;;;;4910733;28;20475;-70
2023/07/17 05:16:27;;;;;;;6.30;4.40;;;17.80;99.90;;;;;;4911861;28;20533;-71
2023/07/17 05:18:53;;;;;;;6.07;4.93;;;17.90;99.90;;;;;;4911422;28;20235;-71
2023/07/17 05:21:19;;;;;;;5.70;4.77;;;17.90;99.90;;;;;;4916237;28;20231;-70
2023/07/17 05:23:44;;;;;;;6.20;4.50;;;17.90;99.90;;;;;;4911481;28;20225;-67
2023/07/17 05:26:10;;;;;;;9.00;5.00;;;17.90;99.90;;;;;;4905977;28;20216;-69
2023/07/17 05:28:37;;;;;;;6.30;4.47;;;17.90;99.90;;;;;;4910604;28;20459;-69
2023/07/17 05:31:04;;;;;;;6.90;4.90;;;17.90;99.90;;;;;;4909924;28;20480;-70
2023/07/17 05:33:30;;;;;;;12.83;4.67;;;18.00;99.90;;;;;;4917215;28;20587;-70
2023/07/17 05:35:55;;;;;;;6.40;4.70;;;18.10;99.90;;;;;;4917275;28;20235;-69
2023/07/17 05:38:23;;;;;;;7.83;4.43;;;18.10;99.90;;;;;;4915872;28;20318;-70
2023/07/17 05:40:58;;;;;;;4.20;3.80;;;17.90;99.90;;;;;;4932262;28;21059;-70
2023/07/17 05:43:24;;;;;;;9.37;3.83;;;18.10;99.90;;;;;;4932222;28;20930;-69
2023/07/17 05:45:58;;;;;;;4.20;3.80;;;18.30;99.90;;;;;;4930469;28;20479;-70
2023/07/17 05:48:24;;;;;;;8.67;4.80;;;18.30;99.90;;;;;;4931889;28;20474;-70
2023/07/17 05:50:50;;;;;;;6.57;4.33;;;18.30;99.90;;;;;;4915569;28;20489;-70
2023/07/17 05:53:16;;;;;;;5.80;4.50;;;18.20;99.90;;;;;;4931447;28;20544;-70
2023/07/17 05:55:43;;;;;;;7.43;5.23;;;18.10;99.90;;;;;;4915962;28;20535;-69
2023/07/17 05:58:09;;;;;;;5.40;4.17;;;18.00;99.90;;;;;;4931120;28;20226;-69
2023/07/17 06:00:35;;;;;;;7.90;5.00;;;18.10;99.90;;;;;;4914924;28;20492;-70
2023/07/17 06:03:00;;;;;;;6.23;3.80;;;18.30;99.90;;;;;;4919975;28;20259;-70
2023/07/17 06:05:26;;;;;;;7.20;5.40;;;18.30;99.90;;;;;;4915403;28;20251;-69
2023/07/17 06:07:52;;;;;;;6.23;4.10;;;18.40;99.90;;;;;;4914913;28;20239;-70
2023/07/17 06:10:17;;;;;;;5.97;4.00;;;18.50;99.90;;;;;;4931307;28;20247;-70
2023/07/17 06:12:43;;;;;;;4.90;3.63;;;18.60;99.90;;;;;;4916294;28;20223;-70
2023/07/17 06:15:10;;;;;;;5.70;4.20;;;18.70;99.90;;;;;;4931270;28;20874;-70
2023/07/17 06:17:37;;;;;;;10.53;4.57;;;18.70;99.90;;;;;;4914635;28;20274;-70
2023/07/17 06:20:05;;;;;;;6.00;4.60;;;18.70;99.90;;;;;;4914773;28;20463;-70
2023/07/17 06:22:30;;;;;;;6.47;4.03;;;18.80;99.90;;;;;;4932419;28;20470;-69
2023/07/17 06:24:56;;;;;;;9.00;4.70;;;18.80;99.90;;;;;;4928902;28;20495;-70
2023/07/17 06:27:22;;;;;;;6.37;4.50;;;18.80;99.90;;;;;;4917243;28;20227;-70
2023/07/17 06:29:47;;;;;;;7.07;5.00;;;18.90;99.90;;;;;;4931424;28;20981;-70
2023/07/17 06:32:13;;;;;;;6.50;4.10;;;18.80;99.90;;;;;;4914624;28;20228;-69
2023/07/17 06:34:41;;;;;;;4.83;4.00;;;18.90;99.90;;;;;;4930319;28;20228;-69
2023/07/17 06:37:07;;;;;;;6.60;4.60;;;19.00;99.90;;;;;;4914663;28;20297;-70
2023/07/17 06:39:33;;;;;;;5.90;4.30;;;19.00;99.90;;;;;;4920677;28;20555;-69
2023/07/17 06:41:59;;;;;;;7.63;5.07;;;19.00;99.90;;;;;;4931567;28;21054;-70
2023/07/17 06:44:25;;;;;;;10.10;4.90;;;19.10;99.90;;;;;;4930732;28;20235;-69
2023/07/17 06:46:50;;;;;;;17.07;5.43;;;19.20;99.90;;;;;;4913642;28;20240;-70
2023/07/17 06:49:16;;;;;;;5.60;4.50;;;19.20;99.90;;;;;;4915076;28;20270;-69
2023/07/17 06:51:42;;;;;;;5.83;4.40;;;19.20;99.90;;;;;;4914743;28;20232;-71
2023/07/17 06:54:07;;;;;;;5.80;4.27;;;19.30;99.90;;;;;;4929435;28;20352;-70
2023/07/17 06:56:33;;;;;;;5.03;4.53;;;19.30;99.90;;;;;;4913376;28;20237;-69
2023/07/17 06:58:59;;;;;;;5.10;4.40;;;19.40;99.90;;;;;;4929437;28;20287;-70
2023/07/17 07:01:24;;;;;;;6.83;4.70;;;19.50;99.90;;;;;;4916650;28;20350;-70
2023/07/17 07:03:50;;;;;;;6.80;4.30;;;19.60;99.90;;;;;;4914662;28;20567;-69
2023/07/17 07:06:16;;;;;;;6.40;4.73;;;19.70;99.90;;;;;;4914120;28;20694;-71
2023/07/17 07:08:42;;;;;;;6.47;4.23;;;19.70;99.90;;;;;;4930857;28;20808;-70
2023/07/17 07:11:10;;;;;;;6.93;4.53;;;19.70;99.90;;;;;;4910605;28;20824;-70
2023/07/17 07:13:36;;;;;;;8.00;4.43;;;19.80;99.90;;;;;;4914785;28;20467;-70
2023/07/17 07:16:01;;;;;;;10.43;4.83;;;19.80;99.90;;;;;;4928995;28;20574;-71
2023/07/17 07:18:27;;;;;;;5.83;4.40;;;19.90;99.90;;;;;;4931365;28;20689;-71
2023/07/17 07:20:53;;;;;;;7.23;5.27;;;20.00;99.90;;;;;;4926479;28;20236;-71
2023/07/17 07:23:19;;;;;;;7.30;4.43;;;20.10;99.90;;;;;;4930400;28;20238;-69
2023/07/17 07:25:44;;;;;;;11.10;4.50;;;20.10;99.90;;;;;;4904311;28;20255;-70
2023/07/17 07:28:11;;;;;;;7.87;4.40;;;20.20;99.90;;;;;;4930535;28;20506;-72
2023/07/17 07:30:37;;;;;;;9.93;4.33;;;20.20;99.90;;;;;;4914074;28;20390;-71
2023/07/17 07:33:03;;;;;;;7.80;4.33;;;20.30;99.90;;;;;;4913992;28;20471;-71
2023/07/17 07:35:29;;;;;;;7.70;4.70;;;20.40;99.90;;;;;;4916501;28;20985;-70
2023/07/17 07:37:54;;;;;;;8.60;5.50;;;20.40;99.90;;;;;;4929544;28;20338;-71
2023/07/17 07:40:20;;;;;;;5.47;4.30;;;20.50;99.90;;;;;;4914590;28;20706;-71
2023/07/17 07:42:46;;;;;;;7.13;4.80;;;20.60;99.90;;;;;;4928785;28;20216;-70
2023/07/17 07:45:12;;;;;;;5.80;4.07;;;20.70;99.90;;;;;;4914063;28;20979;-70
2023/07/17 07:47:41;;;;;;;6.70;4.30;;;20.70;99.90;;;;;;4913777;28;20223;-70
2023/07/17 07:50:08;;;;;;;6.13;4.00;;;20.80;99.90;;;;;;4912236;28;20490;-70
2023/07/17 07:52:33;;;;;;;6.60;4.00;;;20.90;99.90;;;;;;4915577;28;20509;-70
2023/07/17 07:54:59;;;;;;;5.67;4.30;;;21.00;99.90;;;;;;4927631;28;21092;-71
2023/07/17 07:57:25;;;;;;;5.47;4.07;;;21.00;99.90;;;;;;4914162;28;20224;-69
2023/07/17 07:59:51;;;;;;;7.83;3.97;;;21.10;99.90;;;;;;4929825;28;20240;-70
2023/07/17 08:02:17;;;;;;;6.00;3.90;;;21.30;99.90;;;;;;4927979;28;20251;-71
2023/07/17 08:04:43;;;;;;;5.80;4.03;;;21.40;99.90;;;;;;4913219;28;20362;-71
2023/07/17 08:07:10;;;;;;;9.50;4.50;;;21.40;99.90;;;;;;4914137;28;20482;-70
2023/07/17 08:09:36;;;;;;;5.60;3.93;;;21.50;99.90;;;;;;4916600;28;20479;-69
2023/07/17 08:12:02;;;;;;;5.37;4.27;;;21.50;99.90;;;;;;4911043;28;20480;-71
2023/07/17 08:14:27;;;;;;;7.40;4.30;;;21.70;99.90;;;;;;4911774;28;20475;-71
2023/07/17 08:16:53;;;;;;;6.23;4.00;;;21.80;99.90;;;;;;4913431;28;20227;-70
2023/07/17 08:19:20;;;;;;;7.63;4.90;;;21.90;99.90;;;;;;4910919;28;20465;-69
2023/07/17 08:21:45;;;;;;;6.83;4.23;;;22.00;99.90;;;;;;4927607;28;20958;-70
2023/07/17 08:24:11;;;;;;;6.73;3.73;;;22.10;99.90;;;;;;4927357;28;20474;-71
2023/07/17 08:26:38;;;;;;;5.27;4.07;;;22.20;99.90;;;;;;4929669;28;20231;-72
2023/07/17 08:29:07;;;;;;;10.43;4.40;;;22.20;99.90;;;;;;4915037;28;20549;-71
2023/07/17 08:31:34;;;;;;;4.50;3.63;;;22.40;99.90;;;;;;4914065;28;21091;-70
2023/07/17 08:34:00;;;;;;;6.20;3.30;;;22.50;99.90;;;;;;4914099;28;20477;-71
2023/07/17 08:36:28;;;;;;;5.07;3.40;;;22.60;99.90;;;;;;4914334;28;20459;-71
2023/07/17 08:38:54;;;;;;;5.93;4.30;;;22.60;99.90;;;;;;4927508;28;20538;-71
2023/07/17 08:41:21;;;;;;;4.73;4.20;;;22.80;99.90;;;;;;4912411;28;20471;-71
2023/07/17 08:43:48;;;;;;;5.70;4.10;;;22.70;99.90;;;;;;4913809;28;20223;-70
2023/07/17 08:46:14;;;;;;;6.20;3.90;;;22.80;99.90;;;;;;4912476;28;20443;-70
2023/07/17 08:48:43;;;;;;;4.17;3.73;;;23.00;99.90;;;;;;4928925;28;21038;-71
2023/07/17 08:51:12;;;;;;;5.13;3.27;;;23.10;99.90;;;;;;4911989;28;20231;-70
2023/07/17 08:53:41;;;;;;;4.40;3.63;;;23.20;99.40;;;;;;4913141;28;20474;-71
2023/07/17 08:56:07;;;;;;;6.40;3.70;;;23.30;99.00;;;;;;4911534;28;20564;-72
2023/07/17 08:58:33;;;;;;;4.00;3.27;;;23.20;99.60;;;;;;4913821;28;20458;-70
2023/07/17 09:01:00;;;;;;;4.83;3.50;;;23.40;98.80;;;;;;4925293;28;20482;-71
2023/07/17 09:03:26;;;;;;;3.00;2.30;;;23.40;98.70;;;;;;4912321;28;20813;-71
2023/07/17 09:05:52;;;;;;;7.60;3.40;;;23.60;98.50;;;;;;4927443;28;20487;-71
2023/07/17 09:08:17;;;;;;;3.00;2.47;;;23.60;98.80;;;;;;4895267;28;20474;-69
2023/07/17 09:10:44;;;;;;;4.67;2.30;;;23.90;95.90;;;;;;4926347;28;20273;-72
2023/07/17 09:13:10;;;;;;;7.17;2.90;;;23.90;96.80;;;;;;4917229;28;20219;-71
2023/07/17 09:15:35;;;;;;;3.90;2.70;;;24.10;96.80;;;;;;4931979;28;20526;-72
2023/07/17 09:18:02;;;;;;;4.60;3.40;;;24.20;97.00;;;;;;4932294;28;20234;-71
2023/07/17 09:20:29;;;;;;;4.67;2.80;;;24.30;97.20;;;;;;4899028;28;20231;-71
2023/07/17 09:22:58;;;;;;;4.40;3.03;;;24.30;96.20;;;;;;4917381;28;20481;-71
2023/07/17 09:25:28;;;;;;;4.93;3.90;;;24.30;95.20;;;;;;4921443;28;20594;-71
2023/07/17 09:27:54;;;;;;;5.23;3.30;;;24.40;95.20;;;;;;4932837;28;20623;-70
2023/07/17 09:30:23;;;;;;;3.33;2.77;;;24.40;95.20;;;;;;4933278;28;21180;-71
2023/07/17 09:32:50;;;;;;;6.87;2.80;;;24.60;94.50;;;;;;4914742;28;21071;-72
2023/07/17 09:35:21;;;;;;;2.50;2.20;;;24.80;93.60;;;;;;4916414;28;20501;-71
2023/07/17 09:37:47;;;;;;;5.37;2.80;;;24.90;94.20;;;;;;4931653;28;20490;-71
2023/07/17 09:40:17;;;;;;;3.57;2.47;;;24.80;94.70;;;;;;4914787;28;20489;-71
2023/07/17 09:42:44;;;;;;;3.00;2.70;;;24.90;93.40;;;;;;4933313;28;20592;-70
2023/07/17 09:45:11;;;;;;;4.63;2.77;;;24.90;93.40;;;;;;4929560;28;20551;-71
2023/07/17 09:47:39;;;;;;;3.20;2.70;;;25.10;93.80;;;;;;4916088;28;20486;-71
2023/07/17 09:50:05;;;;;;;3.97;2.57;;;25.30;93.10;;;;;;4915848;28;20483;-70
2023/07/17 09:52:32;;;;;;;4.60;3.03;;;25.10;92.60;;;;;;4915869;28;20546;-71
2023/07/17 09:55:01;;;;;;;5.80;3.03;;;25.30;93.60;;;;;;4914659;28;20820;-71
2023/07/17 09:57:35;;;;;;;5.13;3.03;;;25.60;92.70;;;;;;4916268;28;20615;-71
2023/07/17 10:00:13;;;;;;;3.73;2.80;;;25.60;93.00;;;;;;4913832;28;20483;-70
2023/07/17 10:02:40;;;;;;;6.50;3.10;;;25.50;92.50;;;;;;4915225;28;21228;-71
2023/07/17 10:05:06;;;;;;;5.63;3.57;;;25.40;93.20;;;;;;4927739;28;20501;-72
2023/07/17 10:07:41;;;;;;;3.20;2.90;;;25.30;92.70;;;;;;4916481;28;20467;-72
2023/07/17 10:10:09;;;;;;;4.43;3.23;;;25.30;92.40;;;;;;4918610;28;21461;-71
2023/07/17 10:12:35;;;;;;;6.23;3.40;;;25.20;93.20;;;;;;4920126;28;20475;-71
2023/07/17 10:15:02;;;;;;;4.00;3.20;;;25.30;93.30;;;;;;4914258;28;20570;-72
2023/07/17 10:17:31;;;;;;;6.17;2.90;;;25.30;92.70;;;;;;4912769;28;20466;-71
2023/07/17 10:19:58;;;;;;;2.80;2.60;;;25.40;92.40;;;;;;4912600;28;20479;-71
2023/07/17 10:22:33;;;;;;;5.30;3.20;;;25.50;92.60;;;;;;4913763;28;20470;-72
2023/07/17 10:25:07;;;;;;;5.27;2.90;;;25.40;91.60;;;;;;4913916;28;21337;-72
2023/07/17 10:27:40;;;;;;;3.33;2.80;;;25.30;92.20;;;;;;4914589;28;21068;-70
2023/07/17 10:30:24;;;;;;;3.40;3.07;;;25.40;91.80;;;;;;4929712;28;20483;-71
2023/07/17 10:33:10;;;;;;;2.83;2.60;;;25.50;89.70;;;;;;4913531;28;20462;-71
2023/07/17 10:35:48;;;;;;;3.20;2.43;;;25.60;89.50;;;;;;4915346;28;20483;-72
2023/07/17 10:38:22;;;;;;;5.23;2.90;;;25.60;90.40;;;;;;4913065;28;20565;-70
2023/07/17 10:40:47;;;;;;;6.10;2.60;;;25.80;90.20;;;;;;4916081;28;20478;-70
2023/07/17 10:43:22;;;;;;;3.37;2.47;;;26.00;90.40;;;;;;4918177;28;20451;-72
2023/07/17 10:45:48;;;;;;;5.30;3.53;;;26.10;88.40;;;;;;4915583;28;20234;-72
2023/07/17 10:48:15;;;;;;;3.63;2.67;;;26.20;89.60;;;;;;4910707;28;20550;-71
2023/07/17 10:50:54;;;;;;;3.30;2.50;;;26.40;89.20;;;;;;4915360;28;20804;-71
2023/07/17 10:53:21;;;;;;;4.13;2.73;;;26.60;88.30;;;;;;4916005;28;21297;-70
2023/07/17 10:55:46;;;;;;;3.07;2.60;;;26.60;89.10;;;;;;4913807;28;21916;-69
2023/07/17 10:58:13;;;;;;;3.10;2.80;;;26.50;88.80;;;;;;4913285;28;20474;-70
2023/07/17 11:00:43;;;;;;;4.13;2.70;;;26.60;88.50;;;;;;4902415;28;20231;-72
2023/07/17 11:03:22;;;;;;;2.93;2.50;;;26.50;88.30;;;;;;4913878;28;20478;-71
2023/07/17 11:05:48;;;;;;;4.07;3.00;;;26.50;88.30;;;;;;4930078;28;20471;-71
2023/07/17 11:08:14;;;;;;;3.33;2.40;;;26.50;89.90;;;;;;4928211;28;20517;-71
2023/07/17 11:10:44;;;;;;;4.27;2.73;;;26.60;89.60;;;;;;4913984;28;20274;-71
2023/07/17 11:13:11;;;;;;;3.87;2.50;;;26.70;89.40;;;;;;4914255;28;20223;-71
2023/07/17 11:15:37;;;;;;;3.00;2.57;;;27.00;87.10;;;;;;4929363;28;20467;-70
2023/07/17 11:18:06;;;;;;;7.20;2.90;;;26.70;85.90;;;;;;4927657;28;21068;-70
2023/07/17 11:20:32;;;;;;;2.27;2.07;;;26.70;86.40;;;;;;4913957;28;20478;-71
2023/07/17 11:22:58;;;;;;;4.33;2.20;;;26.40;86.10;;;;;;4917553;28;21978;-70
2023/07/17 11:25:27;;;;;;;3.63;2.38;;;26.60;85.60;;;;;;4928787;28;20592;-71
2023/07/17 11:27:54;;;;;;;3.83;2.40;;;26.80;85.00;;;;;;4930241;28;20238;-70
2023/07/17 11:30:25;;;;;;;3.70;2.63;;;26.90;84.90;;;;;;4914294;28;20494;-72
2023/07/17 11:33:00;;;;;;;4.40;3.07;;;27.00;84.20;;;;;;4911834;28;20505;-70
2023/07/17 11:35:44;;;;;;;3.33;2.63;;;27.10;84.90;;;;;;4896862;28;20577;-72
2023/07/17 11:38:15;;;;;;;5.17;3.87;;;27.00;83.90;;;;;;4909966;28;20546;-71
2023/07/17 11:40:53;;;;;;;5.57;3.00;;;27.20;86.00;;;;;;4912433;28;20612;-72
2023/07/17 11:43:30;;;;;;;2.47;1.87;;;27.40;82.40;;;;;;4914173;28;20470;-71
2023/07/17 11:46:01;;;;;;;5.33;2.50;;;27.30;82.00;;;;;;4928552;28;20565;-71
2023/07/17 11:48:27;;;;;;;4.97;2.80;;;27.10;82.80;;;;;;4915237;28;20254;-71
2023/07/17 11:50:57;;;;;;;5.63;2.53;;;27.00;82.20;;;;;;4928611;28;21131;-71
2023/07/17 11:53:23;;;;;;;3.47;2.37;;;27.20;82.10;;;;;;4913935;28;20231;-71
2023/07/17 11:55:50;;;;;;;5.60;2.27;;;27.50;81.10;;;;;;4930463;28;20776;-71
2023/07/17 11:58:21;;;;;;;2.87;2.60;;;27.60;81.70;;;;;;4913025;28;20897;-70
2023/07/17 12:00:49;;;;;;;4.63;2.08;;;27.70;82.20;;;;;;4913873;28;21059;-71
2023/07/17 12:03:15;;;;;;;2.80;2.20;;;27.80;82.50;;;;;;4927971;28;20807;-71
2023/07/17 12:05:41;;;;;;;3.30;2.17;;;27.90;79.30;;;;;;4916728;28;20223;-70
2023/07/17 12:08:07;;;;;;;2.53;2.10;;;27.90;78.00;;;;;;4914911;28;20261;-71
2023/07/17 12:10:33;;;;;;;2.22;1.90;;;28.10;77.20;;;;;;4915637;28;20231;-72
2023/07/17 12:12:59;;;;;;;3.38;2.72;;;28.10;75.70;;;;;;4911058;28;20231;-71
2023/07/17 12:15:26;;;;;;;2.70;2.20;;;28.20;75.60;;;;;;4930440;28;20360;-71
2023/07/17 12:17:52;;;;;;;2.60;2.40;;;28.10;74.80;;;;;;4931027;28;20823;-72
2023/07/17 12:20:20;;;;;;;2.50;2.30;;;28.00;75.70;;;;;;4913940;28;20687;-72
2023/07/17 12:22:49;;;;;;;2.42;2.22;;;28.10;74.10;;;;;;4929821;28;20327;-71
2023/07/17 12:25:15;;;;;;;2.95;2.50;;;28.20;74.20;;;;;;4909792;28;20231;-70
2023/07/17 12:27:44;;;;;;;4.00;2.10;;;28.10;74.10;;;;;;4913936;28;20230;-71
2023/07/17 12:30:11;;;;;;;3.67;2.33;;;28.20;73.80;;;;;;4911631;28;20258;-72
2023/07/17 12:32:41;;;;;;;2.72;2.30;;;28.10;74.70;;;;;;4912536;28;20228;-71
2023/07/17 12:35:08;;;;;;;3.50;2.80;;;27.90;74.10;;;;;;4929203;28;20290;-72
2023/07/17 12:37:34;;;;;;;3.20;2.78;;;27.90;74.50;;;;;;4912633;28;20293;-71
2023/07/17 12:40:00;;;;;;;2.75;2.55;;;27.90;73.80;;;;;;4929030;28;20235;-71
2023/07/17 12:42:26;;;;;;;2.50;2.20;;;28.10;73.50;;;;;;4913687;28;20227;-72
2023/07/17 12:44:52;;;;;;;6.38;2.40;;;28.20;73.50;;;;;;4928216;28;20313;-72